createdAt,value
2023-03-23T15:59:49.740Z,48.87
2023-03-23T16:04:52.195Z,49.15
2023-03-23T16:09:53.777Z,49.30
2023-03-23T16:14:55.284Z,49.80
2023-03-23T16:19:57.000Z,49.90
2023-03-23T16:24:58.459Z,50.12
2023-03-23T16:30:04.476Z,50.35
2023-03-23T16:35:07.336Z,50.47
2023-03-23T16:40:12.316Z,50.49
2023-03-23T16:45:15.409Z,50.87
2023-03-23T16:50:18.805Z,51.15
2023-03-23T16:55:20.477Z,51.32
2023-03-23T17:00:24.950Z,51.53
2023-03-23T17:05:29.225Z,51.78
2023-03-23T17:10:31.563Z,51.87
2023-03-23T17:15:33.392Z,51.96
2023-03-23T17:20:35.569Z,52.14
2023-03-23T17:25:37.119Z,52.26
2023-03-23T17:30:42.509Z,52.52
2023-03-23T17:35:46.434Z,52.50
2023-03-23T17:40:48.604Z,52.65
2023-03-23T17:45:50.496Z,52.92
2023-03-23T17:50:57.551Z,53.09
2023-03-23T17:55:59.272Z,53.33
2023-03-23T18:01:01.666Z,53.57
2023-03-23T18:06:07.556Z,54.00
2023-03-23T18:11:09.481Z,53.77
2023-03-23T18:16:11.581Z,54.38
2023-03-23T18:21:13.125Z,54.59
2023-03-23T18:26:16.662Z,54.78
2023-03-23T18:31:20.243Z,55.21
2023-03-23T18:36:24.943Z,55.14
2023-03-23T18:41:26.976Z,55.19
2023-03-23T18:46:29.049Z,55.83
2023-03-23T18:51:31.248Z,56.44
2023-03-23T18:56:34.574Z,56.36
2023-03-23T19:01:36.507Z,56.49
2023-03-23T19:06:38.184Z,56.33
2023-03-23T19:11:39.879Z,55.86
2023-03-23T19:16:42.095Z,55.98
2023-03-23T19:21:46.982Z,55.90
2023-03-23T19:26:49.007Z,55.87
2023-03-23T19:31:50.855Z,56.22
2023-03-23T19:36:55.085Z,56.18
2023-03-23T19:42:01.399Z,56.38
2023-03-23T19:47:03.126Z,56.43
2023-03-23T19:52:12.155Z,56.81
2023-03-23T19:57:14.437Z,57.11
2023-03-23T20:02:16.446Z,57.39
2023-03-23T20:07:18.108Z,58.08
2023-03-23T20:12:22.655Z,57.38
2023-03-23T20:17:24.720Z,57.25
2023-03-23T20:22:26.347Z,57.22
2023-03-23T20:27:28.087Z,57.40
2023-03-23T20:32:37.215Z,57.62
2023-03-23T20:37:39.928Z,57.97
2023-03-23T20:42:44.079Z,58.49
2023-03-23T20:47:45.803Z,58.83
2023-03-23T20:52:48.069Z,59.90
2023-03-23T20:57:50.779Z,60.13
2023-03-23T21:02:54.210Z,60.71
2023-03-23T21:07:58.020Z,60.99
2023-03-23T21:13:00.171Z,61.82
2023-03-23T21:18:02.499Z,62.48
2023-03-23T21:23:07.792Z,61.04
2023-03-23T21:28:09.474Z,62.64
2023-03-23T21:33:13.431Z,62.98
2023-03-23T21:38:14.915Z,62.49
2023-03-23T21:43:17.013Z,63.18
2023-03-23T21:48:18.515Z,63.99
2023-03-23T21:53:20.819Z,64.97
2023-03-23T21:58:27.479Z,63.24
2023-03-23T22:03:32.905Z,64.00
2023-03-23T22:08:36.446Z,63.91
2023-03-23T22:13:39.735Z,64.01
2023-03-23T22:18:43.339Z,63.46
2023-03-23T22:23:46.345Z,64.02
2023-03-23T22:28:49.568Z,63.75
2023-03-23T22:33:55.068Z,63.64
2023-03-23T22:38:56.731Z,64.30
2023-03-23T22:43:58.689Z,64.35
2023-03-23T22:49:00.198Z,63.86
2023-03-23T22:54:01.815Z,63.79
2023-03-23T22:59:05.434Z,64.84
2023-03-23T23:04:07.253Z,64.56
2023-03-23T23:09:09.060Z,64.13
2023-03-23T23:14:13.563Z,64.01
2023-03-23T23:19:16.037Z,64.26
2023-03-23T23:24:18.027Z,64.34
2023-03-23T23:29:19.724Z,64.65
2023-03-23T23:34:22.279Z,63.98
2023-03-23T23:39:23.813Z,63.90
2023-03-23T23:44:25.616Z,64.23
2023-03-23T23:49:29.964Z,64.54
2023-03-23T23:54:31.741Z,64.65
2023-03-23T23:59:33.316Z,65.14
